首页
METAR-TAF:

METAR-TAF

机场 :

Cherry Point, 北卡罗来纳州, 美国

纬度: 34-53-52N, 经度: 076-52-51W, 海拔: 8米

当前天气观测

该预报发布于51分钟前的09:54 UTC
风速16节,风向北转西北,有时为33节阵风
温度 14°C
湿度 63%
气压 1014 hPa
能見度: 16.1公里
散云层高于4200英尺

METAR: KNKT 210954Z AUTO 33016G33KT 10SM SCT042 14/07 A2994 RMK AO2 PK WND 35033/0945 PRESRR SLP136 T01390072

时间: 06:45 (10:45 UTC)

预报

预报有效从21日的 03点(UTC)到 22日的 03点(UTC)
风速10节,风向西
能见度10公里或以上
多云层高于3500英尺
短暂存在
从 21日的 10点(UTC)到 21日的 12点(UTC)
风速15节,风向西北,有时为32节阵风
能见度10公里或以上
天空无云
成为
从 21日的 12点(UTC)到 21日的 14点(UTC)
风速10节,风向北转西北
能见度10公里或以上
天空无云

TAF: KNKT 2103/2203 27010KT 9999 BKN035 QNH2984INS TEMPO 2110/2112 31015G32KT 9999 SKC BECMG 2112/2114 34010KT 9999 SKC QNH3008INS T19/2103Z T08/2203Z

超过4000个机场的气象观测和天气预报(METAR&TAF报告)。

可查询的气象台以黄色和红色小点在地图上表示。

将鼠标移到小点上方,可查看气象台名称。

然后点击查看天气观测和预报。

如需切换地图:点击带黑十字的绿色按钮放大地图;点击带横线的绿色按钮缩小地图;或者点击绿色箭头查看邻近地区的地图。


METAR-TAF: